sensor_id;sensor_type;location;lat;lon;timestamp;P1;durP1;ratioP1;P2;durP2;ratioP2
66957;SDS011;53892;43.258;-2.932;2023-01-01T00:01:04;9.60;;;1.67;;
66957;SDS011;53892;43.258;-2.932;2023-01-01T00:03:30;14.60;;;2.00;;
66957;SDS011;53892;43.258;-2.932;2023-01-01T00:05:56;12.75;;;1.08;;
66957;SDS011;53892;43.258;-2.932;2023-01-01T00:08:22;7.20;;;0.70;;
66957;SDS011;53892;43.258;-2.932;2023-01-01T00:10:48;7.43;;;0.93;;
66957;SDS011;53892;43.258;-2.932;2023-01-01T00:13:14;8.20;;;0.50;;
66957;SDS011;53892;43.258;-2.932;2023-01-01T00:15:40;9.63;;;1.45;;
66957;SDS011;53892;43.258;-2.932;2023-01-01T00:18:07;9.38;;;0.60;;
66957;SDS011;53892;43.258;-2.932;2023-01-01T00:20:33;9.57;;;0.70;;
66957;SDS011;53892;43.258;-2.932;2023-01-01T00:22:59;13.77;;;1.83;;
66957;SDS011;53892;43.258;-2.932;2023-01-01T00:25:25;9.35;;;1.10;;
66957;SDS011;53892;43.258;-2.932;2023-01-01T00:27:51;7.82;;;0.52;;
66957;SDS011;53892;43.258;-2.932;2023-01-01T00:30:17;8.63;;;1.40;;
66957;SDS011;53892;43.258;-2.932;2023-01-01T00:32:43;11.10;;;0.80;;
66957;SDS011;53892;43.258;-2.932;2023-01-01T00:35:09;11.25;;;0.60;;
66957;SDS011;53892;43.258;-2.932;2023-01-01T00:37:36;16.15;;;1.52;;
66957;SDS011;53892;43.258;-2.932;2023-01-01T00:40:02;5.00;;;0.80;;
66957;SDS011;53892;43.258;-2.932;2023-01-01T00:42:28;5.25;;;0.98;;
66957;SDS011;53892;43.258;-2.932;2023-01-01T00:44:54;7.85;;;0.90;;
66957;SDS011;53892;43.258;-2.932;2023-01-01T00:47:20;13.15;;;0.77;;
66957;SDS011;53892;43.258;-2.932;2023-01-01T00:49:47;7.65;;;0.70;;
66957;SDS011;53892;43.258;-2.932;2023-01-01T00:52:13;7.53;;;1.08;;
66957;SDS011;53892;43.258;-2.932;2023-01-01T00:54:39;9.85;;;0.80;;
66957;SDS011;53892;43.258;-2.932;2023-01-01T00:57:05;5.60;;;0.50;;
66957;SDS011;53892;43.258;-2.932;2023-01-01T00:59:31;7.38;;;0.80;;
66957;SDS011;53892;43.258;-2.932;2023-01-01T01:01:57;5.80;;;0.88;;
66957;SDS011;53892;43.258;-2.932;2023-01-01T01:04:24;9.27;;;0.80;;
66957;SDS011;53892;43.258;-2.932;2023-01-01T01:06:50;18.70;;;0.95;;
66957;SDS011;53892;43.258;-2.932;2023-01-01T01:09:16;7.03;;;1.20;;
66957;SDS011;53892;43.258;-2.932;2023-01-01T01:11:42;10.77;;;2.05;;
66957;SDS011;53892;43.258;-2.932;2023-01-01T01:14:08;11.25;;;1.30;;
66957;SDS011;53892;43.258;-2.932;2023-01-01T01:16:35;5.65;;;1.05;;
66957;SDS011;53892;43.258;-2.932;2023-01-01T01:19:02;23.15;;;1.60;;
66957;SDS011;53892;43.258;-2.932;2023-01-01T01:21:29;15.48;;;1.40;;
66957;SDS011;53892;43.258;-2.932;2023-01-01T01:23:56;22.55;;;6.35;;
66957;SDS011;53892;43.258;-2.932;2023-01-01T01:26:24;13.60;;;3.20;;
66957;SDS011;53892;43.258;-2.932;2023-01-01T01:28:51;9.55;;;2.45;;
66957;SDS011;53892;43.258;-2.932;2023-01-01T01:31:18;11.40;;;2.63;;
66957;SDS011;53892;43.258;-2.932;2023-01-01T01:33:45;10.27;;;2.10;;
66957;SDS011;53892;43.258;-2.932;2023-01-01T01:36:11;16.70;;;2.83;;
66957;SDS011;53892;43.258;-2.932;2023-01-01T01:38:38;13.73;;;2.90;;
66957;SDS011;53892;43.258;-2.932;2023-01-01T01:41:04;18.00;;;3.42;;
66957;SDS011;53892;43.258;-2.932;2023-01-01T01:46:06;8.32;;;2.33;;
66957;SDS011;53892;43.258;-2.932;2023-01-01T01:48:40;13.95;;;1.30;;
66957;SDS011;53892;43.258;-2.932;2023-01-01T01:51:07;10.27;;;1.50;;
66957;SDS011;53892;43.258;-2.932;2023-01-01T01:53:34;15.90;;;1.30;;
66957;SDS011;53892;43.258;-2.932;2023-01-01T01:56:03;6.97;;;1.30;;
66957;SDS011;53892;43.258;-2.932;2023-01-01T01:58:30;12.48;;;3.33;;
66957;SDS011;53892;43.258;-2.932;2023-01-01T02:00:57;10.80;;;1.45;;
66957;SDS011;53892;43.258;-2.932;2023-01-01T02:03:26;16.42;;;1.88;;
66957;SDS011;53892;43.258;-2.932;2023-01-01T02:05:53;11.40;;;1.42;;
66957;SDS011;53892;43.258;-2.932;2023-01-01T02:08:20;8.82;;;1.45;;
66957;SDS011;53892;43.258;-2.932;2023-01-01T02:10:46;12.10;;;1.90;;
66957;SDS011;53892;43.258;-2.932;2023-01-01T02:13:12;4.90;;;1.20;;
66957;SDS011;53892;43.258;-2.932;2023-01-01T02:15:44;7.20;;;1.25;;
66957;SDS011;53892;43.258;-2.932;2023-01-01T02:18:13;12.27;;;1.23;;
66957;SDS011;53892;43.258;-2.932;2023-01-01T02:29:02;11.88;;;1.05;;
66957;SDS011;53892;43.258;-2.932;2023-01-01T02:31:31;14.90;;;0.80;;
66957;SDS011;53892;43.258;-2.932;2023-01-01T02:33:59;18.30;;;2.95;;
66957;SDS011;53892;43.258;-2.932;2023-01-01T02:36:26;14.00;;;1.55;;
66957;SDS011;53892;43.258;-2.932;2023-01-01T02:38:55;10.73;;;1.50;;
66957;SDS011;53892;43.258;-2.932;2023-01-01T02:41:29;10.88;;;1.58;;
66957;SDS011;53892;43.258;-2.932;2023-01-01T02:43:56;9.38;;;2.10;;
66957;SDS011;53892;43.258;-2.932;2023-01-01T02:46:22;12.85;;;3.00;;
66957;SDS011;53892;43.258;-2.932;2023-01-01T02:48:49;10.73;;;1.98;;
66957;SDS011;53892;43.258;-2.932;2023-01-01T02:57:00;14.45;;;1.48;;
66957;SDS011;53892;43.258;-2.932;2023-01-01T03:07:09;17.15;;;1.63;;
66957;SDS011;53892;43.258;-2.932;2023-01-01T03:14:39;8.80;;;1.20;;
66957;SDS011;53892;43.258;-2.932;2023-01-01T03:17:23;7.13;;;1.00;;
66957;SDS011;53892;43.258;-2.932;2023-01-01T03:19:50;9.48;;;0.88;;
66957;SDS011;53892;43.258;-2.932;2023-01-01T03:22:17;16.17;;;0.90;;
66957;SDS011;53892;43.258;-2.932;2023-01-01T03:25:19;11.25;;;0.70;;
66957;SDS011;53892;43.258;-2.932;2023-01-01T03:30:04;10.45;;;1.33;;
66957;SDS011;53892;43.258;-2.932;2023-01-01T03:32:40;11.32;;;1.23;;
66957;SDS011;53892;43.258;-2.932;2023-01-01T03:35:30;9.73;;;1.20;;
66957;SDS011;53892;43.258;-2.932;2023-01-01T03:37:59;9.68;;;0.88;;
66957;SDS011;53892;43.258;-2.932;2023-01-01T03:40:26;13.45;;;1.52;;
66957;SDS011;53892;43.258;-2.932;2023-01-01T03:42:58;12.98;;;2.45;;
66957;SDS011;53892;43.258;-2.932;2023-01-01T03:45:32;13.88;;;1.65;;
66957;SDS011;53892;43.258;-2.932;2023-01-01T03:48:00;14.30;;;3.70;;
66957;SDS011;53892;43.258;-2.932;2023-01-01T03:50:48;10.10;;;3.03;;
66957;SDS011;53892;43.258;-2.932;2023-01-01T03:53:21;7.97;;;1.00;;
66957;SDS011;53892;43.258;-2.932;2023-01-01T03:55:50;6.18;;;1.20;;
66957;SDS011;53892;43.258;-2.932;2023-01-01T03:58:23;13.02;;;1.40;;
66957;SDS011;53892;43.258;-2.932;2023-01-01T04:03:21;9.15;;;1.55;;
66957;SDS011;53892;43.258;-2.932;2023-01-01T04:05:48;10.65;;;1.77;;
66957;SDS011;53892;43.258;-2.932;2023-01-01T04:08:14;16.25;;;1.85;;
66957;SDS011;53892;43.258;-2.932;2023-01-01T04:10:41;19.27;;;2.78;;
66957;SDS011;53892;43.258;-2.932;2023-01-01T04:13:07;11.93;;;1.58;;
66957;SDS011;53892;43.258;-2.932;2023-01-01T04:15:34;6.25;;;0.95;;
66957;SDS011;53892;43.258;-2.932;2023-01-01T04:18:00;6.45;;;1.45;;
66957;SDS011;53892;43.258;-2.932;2023-01-01T04:20:26;11.93;;;1.15;;
66957;SDS011;53892;43.258;-2.932;2023-01-01T04:22:56;14.63;;;1.02;;
66957;SDS011;53892;43.258;-2.932;2023-01-01T04:25:22;9.43;;;1.05;;
66957;SDS011;53892;43.258;-2.932;2023-01-01T04:27:48;4.50;;;0.73;;
66957;SDS011;53892;43.258;-2.932;2023-01-01T04:30:15;11.27;;;0.77;;
66957;SDS011;53892;43.258;-2.932;2023-01-01T04:32:41;9.90;;;1.67;;
66957;SDS011;53892;43.258;-2.932;2023-01-01T04:35:08;7.45;;;0.82;;
66957;SDS011;53892;43.258;-2.932;2023-01-01T04:37:36;16.90;;;1.13;;
66957;SDS011;53892;43.258;-2.932;2023-01-01T04:40:03;8.68;;;1.63;;
66957;SDS011;53892;43.258;-2.932;2023-01-01T04:42:30;21.85;;;1.33;;
66957;SDS011;53892;43.258;-2.932;2023-01-01T04:44:56;15.93;;;1.40;;
66957;SDS011;53892;43.258;-2.932;2023-01-01T04:47:22;9.00;;;0.70;;
66957;SDS011;53892;43.258;-2.932;2023-01-01T04:49:50;12.25;;;0.63;;
66957;SDS011;53892;43.258;-2.932;2023-01-01T04:52:16;9.43;;;0.93;;
66957;SDS011;53892;43.258;-2.932;2023-01-01T04:54:43;13.82;;;1.50;;
66957;SDS011;53892;43.258;-2.932;2023-01-01T04:57:09;11.43;;;0.60;;
66957;SDS011;53892;43.258;-2.932;2023-01-01T04:59:35;7.75;;;1.08;;
66957;SDS011;53892;43.258;-2.932;2023-01-01T05:02:01;8.65;;;0.70;;
66957;SDS011;53892;43.258;-2.932;2023-01-01T05:04:27;6.85;;;0.75;;
66957;SDS011;53892;43.258;-2.932;2023-01-01T05:06:53;8.55;;;0.73;;
66957;SDS011;53892;43.258;-2.932;2023-01-01T05:09:19;7.25;;;0.77;;
66957;SDS011;53892;43.258;-2.932;2023-01-01T05:11:46;12.30;;;1.60;;
66957;SDS011;53892;43.258;-2.932;2023-01-01T05:14:12;12.07;;;1.30;;
66957;SDS011;53892;43.258;-2.932;2023-01-01T05:16:38;7.82;;;1.20;;
66957;SDS011;53892;43.258;-2.932;2023-01-01T05:19:05;8.65;;;1.63;;
66957;SDS011;53892;43.258;-2.932;2023-01-01T05:21:32;12.73;;;1.23;;
66957;SDS011;53892;43.258;-2.932;2023-01-01T05:24:00;6.60;;;1.00;;
66957;SDS011;53892;43.258;-2.932;2023-01-01T05:26:28;10.75;;;0.80;;
66957;SDS011;53892;43.258;-2.932;2023-01-01T05:28:55;9.98;;;0.73;;
66957;SDS011;53892;43.258;-2.932;2023-01-01T05:31:22;13.85;;;0.90;;
66957;SDS011;53892;43.258;-2.932;2023-01-01T05:33:49;6.00;;;0.35;;
66957;SDS011;53892;43.258;-2.932;2023-01-01T05:36:18;14.48;;;2.28;;
66957;SDS011;53892;43.258;-2.932;2023-01-01T05:38:44;6.03;;;0.93;;
66957;SDS011;53892;43.258;-2.932;2023-01-01T05:41:11;5.80;;;0.30;;
66957;SDS011;53892;43.258;-2.932;2023-01-01T05:43:38;7.47;;;1.08;;
66957;SDS011;53892;43.258;-2.932;2023-01-01T05:46:05;6.70;;;0.47;;
66957;SDS011;53892;43.258;-2.932;2023-01-01T05:48:32;8.02;;;0.45;;
66957;SDS011;53892;43.258;-2.932;2023-01-01T05:51:12;9.65;;;0.40;;
66957;SDS011;53892;43.258;-2.932;2023-01-01T05:53:38;7.88;;;0.63;;
66957;SDS011;53892;43.258;-2.932;2023-01-01T05:56:05;9.82;;;0.65;;
66957;SDS011;53892;43.258;-2.932;2023-01-01T05:58:31;11.45;;;0.75;;
66957;SDS011;53892;43.258;-2.932;2023-01-01T06:01:10;11.65;;;0.55;;
66957;SDS011;53892;43.258;-2.932;2023-01-01T06:03:37;6.57;;;0.43;;
66957;SDS011;53892;43.258;-2.932;2023-01-01T06:06:04;5.95;;;0.50;;
66957;SDS011;53892;43.258;-2.932;2023-01-01T06:08:30;8.95;;;1.17;;
66957;SDS011;53892;43.258;-2.932;2023-01-01T06:10:58;9.45;;;0.70;;
66957;SDS011;53892;43.258;-2.932;2023-01-01T06:13:24;7.53;;;0.50;;
66957;SDS011;53892;43.258;-2.932;2023-01-01T06:15:54;2.78;;;0.40;;
66957;SDS011;53892;43.258;-2.932;2023-01-01T06:18:20;10.63;;;0.80;;
66957;SDS011;53892;43.258;-2.932;2023-01-01T06:20:46;6.53;;;0.50;;
66957;SDS011;53892;43.258;-2.932;2023-01-01T06:23:12;4.97;;;0.43;;
66957;SDS011;53892;43.258;-2.932;2023-01-01T06:25:38;15.52;;;1.50;;
66957;SDS011;53892;43.258;-2.932;2023-01-01T06:28:04;8.75;;;0.73;;
66957;SDS011;53892;43.258;-2.932;2023-01-01T06:30:31;6.82;;;0.70;;
66957;SDS011;53892;43.258;-2.932;2023-01-01T06:32:58;9.27;;;0.50;;
66957;SDS011;53892;43.258;-2.932;2023-01-01T06:35:25;5.13;;;0.65;;
66957;SDS011;53892;43.258;-2.932;2023-01-01T06:37:51;10.55;;;0.80;;
66957;SDS011;53892;43.258;-2.932;2023-01-01T06:40:17;7.43;;;1.05;;
66957;SDS011;53892;43.258;-2.932;2023-01-01T06:42:43;7.45;;;0.80;;
66957;SDS011;53892;43.258;-2.932;2023-01-01T06:45:09;7.18;;;0.73;;
66957;SDS011;53892;43.258;-2.932;2023-01-01T06:47:37;12.95;;;0.65;;
66957;SDS011;53892;43.258;-2.932;2023-01-01T06:50:03;6.47;;;1.17;;
66957;SDS011;53892;43.258;-2.932;2023-01-01T06:52:30;6.82;;;0.60;;
66957;SDS011;53892;43.258;-2.932;2023-01-01T06:54:56;9.43;;;0.70;;
66957;SDS011;53892;43.258;-2.932;2023-01-01T06:57:22;9.48;;;0.95;;
66957;SDS011;53892;43.258;-2.932;2023-01-01T06:59:49;8.80;;;0.63;;
66957;SDS011;53892;43.258;-2.932;2023-01-01T07:02:15;9.43;;;0.70;;
66957;SDS011;53892;43.258;-2.932;2023-01-01T07:04:41;12.68;;;0.90;;
66957;SDS011;53892;43.258;-2.932;2023-01-01T07:07:07;7.65;;;0.50;;
66957;SDS011;53892;43.258;-2.932;2023-01-01T07:09:33;7.35;;;0.77;;
66957;SDS011;53892;43.258;-2.932;2023-01-01T07:11:59;9.13;;;0.52;;
66957;SDS011;53892;43.258;-2.932;2023-01-01T07:14:25;7.53;;;0.90;;
66957;SDS011;53892;43.258;-2.932;2023-01-01T07:16:51;9.13;;;0.30;;
66957;SDS011;53892;43.258;-2.932;2023-01-01T07:19:17;8.18;;;0.60;;
66957;SDS011;53892;43.258;-2.932;2023-01-01T07:21:44;9.40;;;0.90;;
66957;SDS011;53892;43.258;-2.932;2023-01-01T07:24:13;5.43;;;0.65;;
66957;SDS011;53892;43.258;-2.932;2023-01-01T07:26:39;8.32;;;0.43;;
66957;SDS011;53892;43.258;-2.932;2023-01-01T07:29:05;5.78;;;0.35;;
66957;SDS011;53892;43.258;-2.932;2023-01-01T07:31:35;6.38;;;0.77;;
66957;SDS011;53892;43.258;-2.932;2023-01-01T07:34:02;9.48;;;0.65;;
66957;SDS011;53892;43.258;-2.932;2023-01-01T07:36:28;6.75;;;0.45;;
66957;SDS011;53892;43.258;-2.932;2023-01-01T07:38:54;8.25;;;0.50;;
66957;SDS011;53892;43.258;-2.932;2023-01-01T07:41:20;10.90;;;1.17;;
66957;SDS011;53892;43.258;-2.932;2023-01-01T07:43:47;12.05;;;0.43;;
66957;SDS011;53892;43.258;-2.932;2023-01-01T07:46:13;4.85;;;0.45;;
66957;SDS011;53892;43.258;-2.932;2023-01-01T07:48:42;6.10;;;0.98;;
66957;SDS011;53892;43.258;-2.932;2023-01-01T07:51:08;6.43;;;0.57;;
66957;SDS011;53892;43.258;-2.932;2023-01-01T07:53:34;7.00;;;0.80;;
66957;SDS011;53892;43.258;-2.932;2023-01-01T07:56:00;6.82;;;1.25;;
66957;SDS011;53892;43.258;-2.932;2023-01-01T07:58:26;9.70;;;1.50;;
66957;SDS011;53892;43.258;-2.932;2023-01-01T08:00:52;7.10;;;0.45;;
66957;SDS011;53892;43.258;-2.932;2023-01-01T08:03:18;4.28;;;1.15;;
66957;SDS011;53892;43.258;-2.932;2023-01-01T08:05:44;4.90;;;0.70;;
66957;SDS011;53892;43.258;-2.932;2023-01-01T08:08:10;3.50;;;0.68;;
66957;SDS011;53892;43.258;-2.932;2023-01-01T08:10:37;11.52;;;0.50;;
66957;SDS011;53892;43.258;-2.932;2023-01-01T08:13:04;6.60;;;0.45;;
66957;SDS011;53892;43.258;-2.932;2023-01-01T08:15:30;7.38;;;0.60;;
66957;SDS011;53892;43.258;-2.932;2023-01-01T08:17:57;4.85;;;0.73;;
66957;SDS011;53892;43.258;-2.932;2023-01-01T08:20:24;4.10;;;0.50;;
66957;SDS011;53892;43.258;-2.932;2023-01-01T08:22:50;8.07;;;0.85;;
66957;SDS011;53892;43.258;-2.932;2023-01-01T08:25:16;12.35;;;1.08;;
66957;SDS011;53892;43.258;-2.932;2023-01-01T08:27:42;8.93;;;0.50;;
66957;SDS011;53892;43.258;-2.932;2023-01-01T08:30:09;12.50;;;1.17;;
66957;SDS011;53892;43.258;-2.932;2023-01-01T08:32:36;9.50;;;0.50;;
66957;SDS011;53892;43.258;-2.932;2023-01-01T08:35:02;17.25;;;1.35;;
66957;SDS011;53892;43.258;-2.932;2023-01-01T08:37:28;4.10;;;0.43;;
66957;SDS011;53892;43.258;-2.932;2023-01-01T08:39:54;5.53;;;0.60;;
66957;SDS011;53892;43.258;-2.932;2023-01-01T08:42:20;5.72;;;1.25;;
66957;SDS011;53892;43.258;-2.932;2023-01-01T08:44:46;4.80;;;0.52;;
66957;SDS011;53892;43.258;-2.932;2023-01-01T08:47:20;7.05;;;0.50;;
66957;SDS011;53892;43.258;-2.932;2023-01-01T08:49:46;9.30;;;0.50;;
66957;SDS011;53892;43.258;-2.932;2023-01-01T08:52:13;5.63;;;0.70;;
66957;SDS011;53892;43.258;-2.932;2023-01-01T08:54:39;7.25;;;0.93;;
66957;SDS011;53892;43.258;-2.932;2023-01-01T08:57:05;5.00;;;0.57;;
66957;SDS011;53892;43.258;-2.932;2023-01-01T08:59:31;5.47;;;0.65;;
66957;SDS011;53892;43.258;-2.932;2023-01-01T09:01:57;2.88;;;0.60;;
66957;SDS011;53892;43.258;-2.932;2023-01-01T09:04:24;6.55;;;0.52;;
66957;SDS011;53892;43.258;-2.932;2023-01-01T09:06:50;8.18;;;0.88;;
66957;SDS011;53892;43.258;-2.932;2023-01-01T09:09:16;4.13;;;0.73;;
66957;SDS011;53892;43.258;-2.932;2023-01-01T09:11:49;4.88;;;0.47;;
66957;SDS011;53892;43.258;-2.932;2023-01-01T09:14:15;5.85;;;0.50;;
66957;SDS011;53892;43.258;-2.932;2023-01-01T09:16:41;4.10;;;0.30;;
66957;SDS011;53892;43.258;-2.932;2023-01-01T09:19:07;8.02;;;0.47;;
66957;SDS011;53892;43.258;-2.932;2023-01-01T09:21:33;7.18;;;0.80;;
66957;SDS011;53892;43.258;-2.932;2023-01-01T09:24:00;3.33;;;0.52;;
66957;SDS011;53892;43.258;-2.932;2023-01-01T09:26:26;4.82;;;1.00;;
66957;SDS011;53892;43.258;-2.932;2023-01-01T09:28:52;7.32;;;0.70;;
66957;SDS011;53892;43.258;-2.932;2023-01-01T09:31:18;4.40;;;0.30;;
66957;SDS011;53892;43.258;-2.932;2023-01-01T09:33:44;7.63;;;0.52;;
66957;SDS011;53892;43.258;-2.932;2023-01-01T09:38:47;7.93;;;0.63;;
66957;SDS011;53892;43.258;-2.932;2023-01-01T09:41:17;5.97;;;0.52;;
66957;SDS011;53892;43.258;-2.932;2023-01-01T09:44:03;5.10;;;0.80;;
66957;SDS011;53892;43.258;-2.932;2023-01-01T09:46:31;8.25;;;0.55;;
66957;SDS011;53892;43.258;-2.932;2023-01-01T09:49:01;5.32;;;0.30;;
66957;SDS011;53892;43.258;-2.932;2023-01-01T09:51:29;7.85;;;0.77;;
66957;SDS011;53892;43.258;-2.932;2023-01-01T09:53:58;2.85;;;0.40;;
66957;SDS011;53892;43.258;-2.932;2023-01-01T09:56:26;8.55;;;0.60;;
66957;SDS011;53892;43.258;-2.932;2023-01-01T09:58:53;5.00;;;0.50;;
66957;SDS011;53892;43.258;-2.932;2023-01-01T10:01:31;11.20;;;0.60;;
66957;SDS011;53892;43.258;-2.932;2023-01-01T10:06:47;3.95;;;0.55;;
66957;SDS011;53892;43.258;-2.932;2023-01-01T10:09:25;4.78;;;0.60;;
66957;SDS011;53892;43.258;-2.932;2023-01-01T10:11:58;4.35;;;0.40;;
66957;SDS011;53892;43.258;-2.932;2023-01-01T10:14:28;6.80;;;1.55;;
66957;SDS011;53892;43.258;-2.932;2023-01-01T10:16:55;5.13;;;0.73;;
66957;SDS011;53892;43.258;-2.932;2023-01-01T10:21:49;3.00;;;0.28;;
66957;SDS011;53892;43.258;-2.932;2023-01-01T10:26:48;4.63;;;0.50;;
66957;SDS011;53892;43.258;-2.932;2023-01-01T10:29:17;5.57;;;0.68;;
66957;SDS011;53892;43.258;-2.932;2023-01-01T10:31:46;4.45;;;0.40;;
66957;SDS011;53892;43.258;-2.932;2023-01-01T10:36:42;2.80;;;0.30;;
66957;SDS011;53892;43.258;-2.932;2023-01-01T10:39:12;2.83;;;0.40;;
66957;SDS011;53892;43.258;-2.932;2023-01-01T10:41:39;5.32;;;0.60;;
66957;SDS011;53892;43.258;-2.932;2023-01-01T10:44:05;6.07;;;0.95;;
66957;SDS011;53892;43.258;-2.932;2023-01-01T10:46:32;5.95;;;0.28;;
66957;SDS011;53892;43.258;-2.932;2023-01-01T10:49:07;3.70;;;0.30;;
66957;SDS011;53892;43.258;-2.932;2023-01-01T10:51:40;2.08;;;0.40;;
66957;SDS011;53892;43.258;-2.932;2023-01-01T10:54:53;1.73;;;0.50;;
66957;SDS011;53892;43.258;-2.932;2023-01-01T10:56:54;2.47;;;0.47;;
66957;SDS011;53892;43.258;-2.932;2023-01-01T11:07:39;6.97;;;0.40;;
66957;SDS011;53892;43.258;-2.932;2023-01-01T11:10:06;3.05;;;0.20;;
66957;SDS011;53892;43.258;-2.932;2023-01-01T11:12:37;4.97;;;0.40;;
66957;SDS011;53892;43.258;-2.932;2023-01-01T11:15:05;3.47;;;0.93;;
66957;SDS011;53892;43.258;-2.932;2023-01-01T11:17:32;5.78;;;0.43;;
66957;SDS011;53892;43.258;-2.932;2023-01-01T11:20:00;4.43;;;0.52;;
66957;SDS011;53892;43.258;-2.932;2023-01-01T11:24:59;2.83;;;0.70;;
66957;SDS011;53892;43.258;-2.932;2023-01-01T11:27:25;2.80;;;0.32;;
66957;SDS011;53892;43.258;-2.932;2023-01-01T11:29:52;4.78;;;0.60;;
66957;SDS011;53892;43.258;-2.932;2023-01-01T11:32:38;5.35;;;0.30;;
66957;SDS011;53892;43.258;-2.932;2023-01-01T11:35:04;4.43;;;0.40;;
66957;SDS011;53892;43.258;-2.932;2023-01-01T11:37:36;3.88;;;0.20;;
66957;SDS011;53892;43.258;-2.932;2023-01-01T11:40:04;3.55;;;0.30;;
66957;SDS011;53892;43.258;-2.932;2023-01-01T11:42:35;1.50;;;0.45;;
66957;SDS011;53892;43.258;-2.932;2023-01-01T11:45:03;10.18;;;0.73;;
66957;SDS011;53892;43.258;-2.932;2023-01-01T11:47:34;4.07;;;0.30;;
66957;SDS011;53892;43.258;-2.932;2023-01-01T11:52:37;5.95;;;0.30;;
66957;SDS011;53892;43.258;-2.932;2023-01-01T11:55:10;3.58;;;0.38;;
66957;SDS011;53892;43.258;-2.932;2023-01-01T11:57:38;3.10;;;0.40;;
66957;SDS011;53892;43.258;-2.932;2023-01-01T12:00:11;2.00;;;0.30;;
66957;SDS011;53892;43.258;-2.932;2023-01-01T12:02:39;3.42;;;0.43;;
66957;SDS011;53892;43.258;-2.932;2023-01-01T12:07:38;5.78;;;0.30;;
66957;SDS011;53892;43.258;-2.932;2023-01-01T12:10:16;2.33;;;0.45;;
66957;SDS011;53892;43.258;-2.932;2023-01-01T12:12:52;4.05;;;0.30;;
66957;SDS011;53892;43.258;-2.932;2023-01-01T12:18:03;3.72;;;0.20;;
66957;SDS011;53892;43.258;-2.932;2023-01-01T12:20:32;2.92;;;0.20;;
66957;SDS011;53892;43.258;-2.932;2023-01-01T12:22:59;2.75;;;0.30;;
66957;SDS011;53892;43.258;-2.932;2023-01-01T12:25:43;1.63;;;0.20;;
66957;SDS011;53892;43.258;-2.932;2023-01-01T12:30:39;2.28;;;0.35;;
66957;SDS011;53892;43.258;-2.932;2023-01-01T12:33:18;6.15;;;0.40;;
66957;SDS011;53892;43.258;-2.932;2023-01-01T12:45:45;5.03;;;0.20;;
66957;SDS011;53892;43.258;-2.932;2023-01-01T12:48:37;4.75;;;0.30;;
66957;SDS011;53892;43.258;-2.932;2023-01-01T12:59:09;5.57;;;0.70;;
66957;SDS011;53892;43.258;-2.932;2023-01-01T13:01:32;3.42;;;0.47;;
66957;SDS011;53892;43.258;-2.932;2023-01-01T13:09:12;3.47;;;0.20;;
66957;SDS011;53892;43.258;-2.932;2023-01-01T13:11:40;11.63;;;0.40;;
66957;SDS011;53892;43.258;-2.932;2023-01-01T13:14:07;2.67;;;0.50;;
66957;SDS011;53892;43.258;-2.932;2023-01-01T13:16:37;6.35;;;0.40;;
66957;SDS011;53892;43.258;-2.932;2023-01-01T13:19:05;2.08;;;0.40;;
66957;SDS011;53892;43.258;-2.932;2023-01-01T13:21:31;5.47;;;0.30;;
66957;SDS011;53892;43.258;-2.932;2023-01-01T13:24:04;3.42;;;0.28;;
66957;SDS011;53892;43.258;-2.932;2023-01-01T13:26:43;6.30;;;0.40;;
66957;SDS011;53892;43.258;-2.932;2023-01-01T13:36:49;11.68;;;0.70;;
66957;SDS011;53892;43.258;-2.932;2023-01-01T13:42:00;3.30;;;0.30;;
66957;SDS011;53892;43.258;-2.932;2023-01-01T13:44:26;3.13;;;0.30;;
66957;SDS011;53892;43.258;-2.932;2023-01-01T13:56:59;6.93;;;0.50;;
66957;SDS011;53892;43.258;-2.932;2023-01-01T14:02:25;5.00;;;0.40;;
66957;SDS011;53892;43.258;-2.932;2023-01-01T14:07:38;4.13;;;0.40;;
66957;SDS011;53892;43.258;-2.932;2023-01-01T14:12:43;3.47;;;0.52;;
66957;SDS011;53892;43.258;-2.932;2023-01-01T14:17:41;4.95;;;0.60;;
66957;SDS011;53892;43.258;-2.932;2023-01-01T14:20:12;6.82;;;0.73;;
66957;SDS011;53892;43.258;-2.932;2023-01-01T14:22:39;10.27;;;0.40;;
66957;SDS011;53892;43.258;-2.932;2023-01-01T14:25:05;8.00;;;0.60;;
66957;SDS011;53892;43.258;-2.932;2023-01-01T14:27:31;6.28;;;0.52;;
66957;SDS011;53892;43.258;-2.932;2023-01-01T14:29:57;10.73;;;0.68;;
66957;SDS011;53892;43.258;-2.932;2023-01-01T14:32:23;8.82;;;0.90;;
66957;SDS011;53892;43.258;-2.932;2023-01-01T14:34:58;3.30;;;0.68;;
66957;SDS011;53892;43.258;-2.932;2023-01-01T14:37:27;3.50;;;0.40;;
66957;SDS011;53892;43.258;-2.932;2023-01-01T14:40:06;8.40;;;0.68;;
66957;SDS011;53892;43.258;-2.932;2023-01-01T14:42:33;3.15;;;0.38;;
66957;SDS011;53892;43.258;-2.932;2023-01-01T14:45:00;5.20;;;0.40;;
66957;SDS011;53892;43.258;-2.932;2023-01-01T14:47:31;25.95;;;1.80;;
66957;SDS011;53892;43.258;-2.932;2023-01-01T14:50:21;3.65;;;0.43;;
66957;SDS011;53892;43.258;-2.932;2023-01-01T14:52:44;8.60;;;0.40;;
66957;SDS011;53892;43.258;-2.932;2023-01-01T14:55:15;10.68;;;1.88;;
66957;SDS011;53892;43.258;-2.932;2023-01-01T14:57:44;16.92;;;0.70;;
66957;SDS011;53892;43.258;-2.932;2023-01-01T15:00:30;9.40;;;0.50;;
66957;SDS011;53892;43.258;-2.932;2023-01-01T15:03:04;7.15;;;0.50;;
66957;SDS011;53892;43.258;-2.932;2023-01-01T15:05:31;8.23;;;0.45;;
66957;SDS011;53892;43.258;-2.932;2023-01-01T15:07:58;2.55;;;0.30;;
66957;SDS011;53892;43.258;-2.932;2023-01-01T15:10:26;1.63;;;0.35;;
66957;SDS011;53892;43.258;-2.932;2023-01-01T15:12:52;7.03;;;0.50;;
66957;SDS011;53892;43.258;-2.932;2023-01-01T15:15:34;8.43;;;0.60;;
66957;SDS011;53892;43.258;-2.932;2023-01-01T15:18:00;3.45;;;0.30;;
66957;SDS011;53892;43.258;-2.932;2023-01-01T15:20:27;7.22;;;0.55;;
66957;SDS011;53892;43.258;-2.932;2023-01-01T15:22:53;2.35;;;0.30;;
66957;SDS011;53892;43.258;-2.932;2023-01-01T15:25:19;10.80;;;1.45;;
66957;SDS011;53892;43.258;-2.932;2023-01-01T15:27:49;9.68;;;0.77;;
66957;SDS011;53892;43.258;-2.932;2023-01-01T15:30:21;3.95;;;0.50;;
66957;SDS011;53892;43.258;-2.932;2023-01-01T15:32:48;7.00;;;0.47;;
66957;SDS011;53892;43.258;-2.932;2023-01-01T15:35:48;6.13;;;0.70;;
66957;SDS011;53892;43.258;-2.932;2023-01-01T15:38:09;6.00;;;0.32;;
66957;SDS011;53892;43.258;-2.932;2023-01-01T15:40:36;15.25;;;0.70;;
66957;SDS011;53892;43.258;-2.932;2023-01-01T15:43:09;7.03;;;0.40;;
66957;SDS011;53892;43.258;-2.932;2023-01-01T15:45:40;9.57;;;0.40;;
66957;SDS011;53892;43.258;-2.932;2023-01-01T15:53:09;8.35;;;0.70;;
66957;SDS011;53892;43.258;-2.932;2023-01-01T15:55:40;10.18;;;0.57;;
66957;SDS011;53892;43.258;-2.932;2023-01-01T15:58:12;3.53;;;0.32;;
66957;SDS011;53892;43.258;-2.932;2023-01-01T16:00:42;6.70;;;0.32;;
66957;SDS011;53892;43.258;-2.932;2023-01-01T16:03:18;6.75;;;1.05;;
66957;SDS011;53892;43.258;-2.932;2023-01-01T16:05:48;7.47;;;0.73;;
66957;SDS011;53892;43.258;-2.932;2023-01-01T16:08:15;10.75;;;0.60;;
66957;SDS011;53892;43.258;-2.932;2023-01-01T16:10:41;5.93;;;0.88;;
66957;SDS011;53892;43.258;-2.932;2023-01-01T16:13:08;7.03;;;0.50;;
66957;SDS011;53892;43.258;-2.932;2023-01-01T16:15:34;5.28;;;0.40;;
66957;SDS011;53892;43.258;-2.932;2023-01-01T16:18:01;3.28;;;0.40;;
66957;SDS011;53892;43.258;-2.932;2023-01-01T16:20:27;2.92;;;0.32;;
66957;SDS011;53892;43.258;-2.932;2023-01-01T16:22:53;3.20;;;0.35;;
66957;SDS011;53892;43.258;-2.932;2023-01-01T16:25:20;1.50;;;0.32;;
66957;SDS011;53892;43.258;-2.932;2023-01-01T16:27:47;6.40;;;0.82;;
66957;SDS011;53892;43.258;-2.932;2023-01-01T16:30:13;3.42;;;0.25;;
66957;SDS011;53892;43.258;-2.932;2023-01-01T16:32:40;4.90;;;0.50;;
66957;SDS011;53892;43.258;-2.932;2023-01-01T16:35:10;3.75;;;0.30;;
66957;SDS011;53892;43.258;-2.932;2023-01-01T16:37:37;5.47;;;0.40;;
66957;SDS011;53892;43.258;-2.932;2023-01-01T16:40:03;3.58;;;0.30;;
66957;SDS011;53892;43.258;-2.932;2023-01-01T16:42:29;9.13;;;0.50;;
66957;SDS011;53892;43.258;-2.932;2023-01-01T16:44:55;5.22;;;0.55;;